Terminal Aerodrome Forecast
Issued by NWS

Home | Current Version | Previous Version | Text Only | Print | Product List | Glossary Off
Versions: 1 2 3 4 5 6 7 8 9 10 11 12 13 14 15 16 17 18 19 20 21 22 23 24 25 26 27 28 29 30 31 32 33 34 35 36 37 38 39 40 41 42 43 44 45 46 47 48 49 50

000
FTUS43 KLOT 251700
TAFGYY
TAF
KGYY 251737Z 2518/2618 03018G28KT 3SM -SN BR OVC009
      TEMPO 2518/2520 1 1/2SM -SN BR OVC005
     FM252200 03017G26KT 6SM -SN OVC012
     FM260300 02013G19KT P6SM BKN020
     FM260800 02006KT P6SM SCT020
     FM261400 VRB03KT P6SM FEW020 BKN080=

USA.gov is the U.S. government's official web portal to all federal, state and local government web resources and services.